Terminal Aerodrome Forecast
Issued by NWS Mt. Holly, NJ

Home | Current Version | Previous Version | Text Only | Print | Product List | Glossary On
Versions: 1 2 3 4 5 6 7 8 9 10 11 12 13 14 15 16 17
000
FTAK31 PANC 122339
TAFABE
TAF
PABE 122339Z 1300/1324 06008KT P6SM -SHRA SCT025 BKN040 OVC060
     FM130500 12010KT P6SM SCT040 OVC060
     FM131800 VRB05KT 3SM BR VCFG SCT002 BKN007=

USA.gov is the U.S. government's official web portal to all federal, state and local government web resources and services.